createdAt,value
2018-10-03T00:01:34.387Z,100395.40
2018-10-03T00:04:01.449Z,100400.08
2018-10-03T00:06:28.575Z,100407.70
2018-10-03T00:08:55.548Z,100412.70
2018-10-03T00:11:22.538Z,100409.16
2018-10-03T00:13:49.527Z,100403.85
2018-10-03T00:16:16.591Z,100398.38
2018-10-03T00:18:43.680Z,100401.34
2018-10-03T00:21:10.768Z,100400.67
2018-10-03T00:23:37.848Z,100405.61
2018-10-03T00:26:05.154Z,100406.47
2018-10-03T00:28:32.141Z,100411.08
2018-10-03T00:30:59.128Z,100413.31
2018-10-03T00:33:26.115Z,100413.20
2018-10-03T00:35:53.115Z,100415.59
2018-10-03T00:38:20.128Z,100410.47
2018-10-03T00:40:47.128Z,100408.54
2018-10-03T00:43:14.175Z,100406.90
2018-10-03T00:45:41.288Z,100405.83
2018-10-03T00:48:08.672Z,100406.42
2018-10-03T00:50:35.932Z,100405.77
2018-10-03T00:53:03.003Z,100409.79
2018-10-03T00:55:29.983Z,100420.00
2018-10-03T00:57:57.144Z,100432.92
2018-10-03T01:00:24.240Z,100431.94
2018-10-03T01:02:51.224Z,100428.57
2018-10-03T01:05:18.315Z,100430.89
2018-10-03T01:07:45.291Z,100444.08
2018-10-03T01:10:12.347Z,100435.83
2018-10-03T01:12:39.696Z,100438.81
2018-10-03T01:15:08.065Z,100454.08
2018-10-03T01:17:35.065Z,100439.08
2018-10-03T01:20:02.139Z,100434.58
2018-10-03T01:22:29.264Z,100439.28
2018-10-03T01:24:56.332Z,100436.78
2018-10-03T01:27:23.685Z,100435.82
2018-10-03T01:29:50.739Z,100438.70
2018-10-03T01:32:17.747Z,100447.47
2018-10-03T01:34:45.136Z,100446.72
2018-10-03T01:37:12.195Z,100443.45
2018-10-03T01:39:39.228Z,100444.70
2018-10-03T01:42:06.699Z,100431.53
2018-10-03T01:44:33.911Z,100438.84
2018-10-03T01:47:00.910Z,100431.16
2018-10-03T01:49:27.891Z,100427.28
2018-10-03T01:51:54.952Z,100426.89
2018-10-03T01:54:22.015Z,100418.16
2018-10-03T01:56:48.995Z,100408.94
2018-10-03T01:59:15.982Z,100422.53
2018-10-03T02:01:43.072Z,100407.91
2018-10-03T02:04:10.157Z,100407.80
2018-10-03T02:06:40.525Z,100420.05
2018-10-03T02:09:07.609Z,100417.31
2018-10-03T02:11:34.584Z,100433.98
2018-10-03T02:14:01.586Z,100450.58
2018-10-03T02:16:28.572Z,100451.91
2018-10-03T02:18:55.533Z,100477.91
2018-10-03T02:21:22.593Z,100487.66
2018-10-03T02:23:49.673Z,100497.40
2018-10-03T02:26:16.727Z,100509.25
2018-10-03T02:28:43.707Z,100506.14
2018-10-03T02:31:10.699Z,100496.59
2018-10-03T02:33:37.680Z,100490.60
2018-10-03T02:36:04.767Z,100484.31
2018-10-03T02:38:31.943Z,100494.25
2018-10-03T02:40:58.955Z,100490.36
2018-10-03T02:43:25.968Z,100490.36
2018-10-03T02:45:53.473Z,100488.61
2018-10-03T02:48:20.542Z,100481.88
2018-10-03T02:50:47.668Z,100488.94
2018-10-03T02:53:14.671Z,100483.42
2018-10-03T02:55:41.840Z,100492.46
2018-10-03T02:58:08.915Z,100497.26
2018-10-03T03:00:35.929Z,100504.64
2018-10-03T03:03:03.196Z,100485.72
2018-10-03T03:05:30.192Z,100492.64
2018-10-03T03:07:57.160Z,100510.42
2018-10-03T03:10:24.154Z,100500.23
2018-10-03T03:12:58.495Z,100516.80
2018-10-03T03:15:26.127Z,100522.55
2018-10-03T03:17:53.240Z,100523.36
2018-10-03T03:20:20.667Z,100511.11
2018-10-03T03:22:47.655Z,100517.67
2018-10-03T03:25:14.616Z,100516.11
2018-10-03T03:27:41.639Z,100515.73
2018-10-03T03:30:08.612Z,100510.42
2018-10-03T03:32:35.597Z,100520.73
2018-10-03T03:35:02.603Z,100521.69
2018-10-03T03:37:29.681Z,100525.53
2018-10-03T03:39:56.647Z,100535.80
2018-10-03T03:42:23.726Z,100537.45
2018-10-03T03:44:51.129Z,100553.92
2018-10-03T03:47:18.215Z,100553.73
2018-10-03T03:49:45.261Z,100526.84
2018-10-03T03:52:12.268Z,100547.45
2018-10-03T03:54:39.392Z,100538.70
2018-10-03T03:57:06.407Z,100550.43
2018-10-03T03:59:33.720Z,100557.55
2018-10-03T04:02:00.687Z,100570.39
2018-10-03T04:04:27.768Z,100572.12
2018-10-03T04:06:54.808Z,100568.27
2018-10-03T04:09:21.820Z,100563.19
2018-10-03T04:11:48.815Z,100566.94
2018-10-03T04:14:15.867Z,100567.71
2018-10-03T04:16:43.085Z,100557.02
2018-10-03T04:19:10.141Z,100555.37
2018-10-03T04:21:38.781Z,100562.11
2018-10-03T04:24:07.056Z,100588.38
2018-10-03T04:26:34.136Z,100586.95
2018-10-03T04:29:01.376Z,100590.70
2018-10-03T04:31:28.343Z,100584.92
2018-10-03T04:33:55.389Z,100597.05
2018-10-03T04:36:22.616Z,100604.24
2018-10-03T04:38:49.636Z,100618.36
2018-10-03T04:41:16.900Z,100626.29
2018-10-03T04:43:43.888Z,100623.25
2018-10-03T04:46:10.912Z,100628.65
2018-10-03T04:48:38.004Z,100626.89
2018-10-03T04:51:05.065Z,100633.66
2018-10-03T04:53:32.165Z,100624.89
2018-10-03T04:55:59.144Z,100636.45
2018-10-03T04:58:26.107Z,100643.44
2018-10-03T05:00:53.195Z,100640.16
2018-10-03T05:03:20.182Z,100630.74
2018-10-03T05:05:47.251Z,100640.75
2018-10-03T05:08:14.252Z,100642.48
2018-10-03T05:10:41.768Z,100646.83
2018-10-03T05:13:08.761Z,100656.31
2018-10-03T05:15:35.813Z,100659.89
2018-10-03T05:18:02.896Z,100665.76
2018-10-03T05:20:30.047Z,100676.25
2018-10-03T05:22:57.059Z,100679.27
2018-10-03T05:25:24.041Z,100678.93
2018-10-03T05:27:51.099Z,100689.00
2018-10-03T05:30:18.460Z,100695.47
2018-10-03T05:32:45.473Z,100690.55
2018-10-03T05:35:12.533Z,100694.94
2018-10-03T05:37:39.872Z,100706.73
2018-10-03T05:40:06.879Z,100709.66
2018-10-03T05:42:33.952Z,100708.80
2018-10-03T05:45:00.939Z,100718.37
2018-10-03T05:47:28.013Z,100716.34
2018-10-03T05:49:55.008Z,100729.21
2018-10-03T05:52:22.068Z,100734.05
2018-10-03T05:54:49.122Z,100736.45
2018-10-03T05:57:16.048Z,100734.00
2018-10-03T05:59:43.108Z,100739.47
2018-10-03T06:02:10.584Z,100745.22
2018-10-03T06:04:37.576Z,100752.05
2018-10-03T06:07:04.596Z,100751.52
2018-10-03T06:09:31.588Z,100768.45
2018-10-03T06:11:58.638Z,100769.14
2018-10-03T06:14:25.573Z,100771.27
2018-10-03T06:16:52.723Z,100771.38
2018-10-03T06:19:19.793Z,100778.22
2018-10-03T06:21:46.895Z,100777.00
2018-10-03T06:24:14.025Z,100786.80
2018-10-03T06:26:41.008Z,100797.60
2018-10-03T06:29:08.100Z,100812.50
2018-10-03T06:31:35.284Z,100808.14
2018-10-03T06:34:02.273Z,100806.92
2018-10-03T06:36:29.597Z,100804.68
2018-10-03T06:38:56.767Z,100807.70
2018-10-03T06:41:23.890Z,100814.59
2018-10-03T06:43:50.975Z,100815.64
2018-10-03T06:46:18.347Z,100819.66
2018-10-03T06:48:45.747Z,100830.17
2018-10-03T06:51:12.738Z,100830.77
2018-10-03T06:53:39.810Z,100845.41
2018-10-03T06:56:07.171Z,100851.28
2018-10-03T06:58:34.137Z,100862.05
2018-10-03T07:01:01.300Z,100862.52
2018-10-03T07:03:28.384Z,100867.84
2018-10-03T07:05:55.543Z,100873.14
2018-10-03T07:08:22.493Z,100883.64
2018-10-03T07:10:49.844Z,100889.00
2018-10-03T07:13:17.540Z,100898.25
2018-10-03T07:15:44.536Z,100901.74
2018-10-03T07:18:11.658Z,100902.84
2018-10-03T07:20:38.965Z,100907.68
2018-10-03T07:23:05.987Z,100909.45
2018-10-03T07:25:33.089Z,100915.20
2018-10-03T07:28:00.737Z,100915.11
2018-10-03T07:30:28.867Z,100927.73
2018-10-03T07:32:56.872Z,100936.50
2018-10-03T07:35:24.834Z,100941.99
2018-10-03T07:37:53.982Z,100941.91
2018-10-03T07:40:21.906Z,100956.12
2018-10-03T07:42:49.744Z,100954.05
2018-10-03T07:45:18.188Z,100957.25
2018-10-03T07:47:45.920Z,100962.73
2018-10-03T07:50:13.883Z,100971.03
2018-10-03T07:52:41.654Z,100971.73
2018-10-03T07:55:09.359Z,100975.45
2018-10-03T07:57:37.847Z,100983.45
2018-10-03T08:00:07.251Z,100983.70
2018-10-03T08:02:35.338Z,100994.08
2018-10-03T08:05:03.021Z,101005.28
2018-10-03T08:07:31.297Z,101011.85
2018-10-03T08:09:59.448Z,101010.52
2018-10-03T08:12:27.609Z,101015.97
2018-10-03T08:14:55.452Z,101016.56
2018-10-03T08:17:23.338Z,101021.29
2018-10-03T08:19:51.884Z,101033.78
2018-10-03T08:22:19.705Z,101033.17
2018-10-03T08:24:47.885Z,101027.98
2018-10-03T08:27:16.220Z,101037.45
2018-10-03T08:29:43.844Z,101043.33
2018-10-03T08:32:11.764Z,101054.16
2018-10-03T08:34:40.133Z,101057.52
2018-10-03T08:37:07.921Z,101061.59
2018-10-03T08:39:35.564Z,101058.56
2018-10-03T08:42:02.620Z,101069.12
2018-10-03T08:44:29.708Z,101074.13
2018-10-03T08:46:57.195Z,101075.64
2018-10-03T08:49:25.515Z,101079.89
2018-10-03T08:51:52.901Z,101081.34
2018-10-03T08:54:19.885Z,101086.23
2018-10-03T08:56:47.042Z,101091.47
2018-10-03T08:59:14.469Z,101098.80
2018-10-03T09:01:41.423Z,101100.14
2018-10-03T09:04:08.391Z,101096.13
2018-10-03T09:06:35.675Z,101097.11
2018-10-03T09:09:03.062Z,101092.27
2018-10-03T09:11:30.048Z,101097.89
2018-10-03T09:13:57.116Z,101116.66
2018-10-03T09:16:24.168Z,101124.11
2018-10-03T09:18:51.231Z,101119.72
2018-10-03T09:21:18.291Z,101133.52
2018-10-03T09:23:45.200Z,101137.05
2018-10-03T09:26:12.186Z,101149.91
2018-10-03T09:28:39.168Z,101160.48
2018-10-03T09:31:06.216Z,101155.57
2018-10-03T09:33:33.203Z,101163.45
2018-10-03T09:36:00.553Z,101175.03
2018-10-03T09:38:27.707Z,101180.76
2018-10-03T09:40:54.759Z,101187.30
2018-10-03T09:43:22.279Z,101186.28
2018-10-03T09:45:49.271Z,101193.50
2018-10-03T09:48:16.257Z,101190.95
2018-10-03T09:50:43.553Z,101190.73
2018-10-03T09:53:10.615Z,101201.59
2018-10-03T09:55:37.643Z,101201.81
2018-10-03T09:58:04.648Z,101201.59
2018-10-03T10:00:37.390Z,101205.21
2018-10-03T10:03:04.694Z,101212.41
2018-10-03T10:05:31.907Z,101216.06
2018-10-03T10:07:58.872Z,101212.63
2018-10-03T10:10:25.961Z,101231.34
2018-10-03T10:12:52.941Z,101237.58
2018-10-03T10:15:19.926Z,101228.25
2018-10-03T10:17:47.024Z,101229.30
2018-10-03T10:20:14.057Z,101234.48
2018-10-03T10:22:41.020Z,101234.05
2018-10-03T10:25:08.032Z,101244.95
2018-10-03T10:27:35.173Z,101246.20
2018-10-03T10:30:02.348Z,101248.36
2018-10-03T10:32:29.488Z,101265.78
2018-10-03T10:34:56.436Z,101256.50
2018-10-03T10:37:23.405Z,101257.76
2018-10-03T10:39:50.940Z,101275.47
2018-10-03T10:42:17.924Z,101267.48
2018-10-03T10:44:44.893Z,101274.66
2018-10-03T10:47:11.926Z,101269.31
2018-10-03T10:49:39.119Z,101285.08
2018-10-03T10:52:06.286Z,101300.38
2018-10-03T10:54:33.495Z,101289.28
2018-10-03T10:57:00.756Z,101297.18
2018-10-03T10:59:29.806Z,101300.88
2018-10-03T11:01:56.871Z,101295.28
2018-10-03T11:04:24.104Z,101303.80
2018-10-03T11:06:51.072Z,101287.45
2018-10-03T11:09:18.152Z,101303.28
2018-10-03T11:11:45.159Z,101314.19
2018-10-03T11:14:12.122Z,101302.61
2018-10-03T11:16:39.427Z,101329.31
2018-10-03T11:19:06.480Z,101325.52
2018-10-03T11:21:33.771Z,101331.62
2018-10-03T11:24:00.951Z,101339.34
2018-10-03T11:26:27.871Z,101331.20
2018-10-03T11:28:54.903Z,101343.46
2018-10-03T11:31:22.040Z,101355.87
2018-10-03T11:33:49.131Z,101354.81
2018-10-03T11:36:16.168Z,101354.95
2018-10-03T11:38:43.216Z,101352.18
2018-10-03T11:41:10.412Z,101351.92
2018-10-03T11:43:37.440Z,101350.05
2018-10-03T11:46:04.642Z,101347.38
2018-10-03T11:48:32.051Z,101356.25
2018-10-03T11:50:59.024Z,101347.49
2018-10-03T11:53:26.076Z,101352.28
2018-10-03T11:55:53.067Z,101355.78
2018-10-03T11:58:20.100Z,101358.03
2018-10-03T12:00:47.176Z,101375.87
2018-10-03T12:03:14.254Z,101353.70
2018-10-03T12:05:41.531Z,101375.03
2018-10-03T12:08:08.521Z,101371.70
2018-10-03T12:10:35.529Z,101384.45
2018-10-03T12:13:02.630Z,101366.89
2018-10-03T12:15:29.598Z,101379.19
2018-10-03T12:17:56.899Z,101405.75
2018-10-03T12:20:24.390Z,101378.69
2018-10-03T12:22:51.960Z,101398.53
2018-10-03T12:25:19.010Z,101395.31
2018-10-03T12:27:46.240Z,101409.17
2018-10-03T12:30:13.293Z,101415.94
2018-10-03T12:32:40.876Z,101420.56
2018-10-03T12:35:07.958Z,101415.44
2018-10-03T12:37:35.112Z,101406.37
2018-10-03T12:40:02.291Z,101421.02
2018-10-03T12:42:29.307Z,101418.85
2018-10-03T12:44:56.299Z,101417.27
2018-10-03T12:47:23.269Z,101414.17
2018-10-03T12:49:50.263Z,101425.73
2018-10-03T12:52:17.291Z,101429.94
2018-10-03T12:54:44.615Z,101434.99
2018-10-03T12:57:11.612Z,101434.17
2018-10-03T12:59:38.855Z,101429.94
2018-10-03T13:02:06.504Z,101439.23
2018-10-03T13:04:33.590Z,101429.81
2018-10-03T13:07:00.600Z,101441.94
2018-10-03T13:09:27.591Z,101439.18
2018-10-03T13:11:54.561Z,101438.56
2018-10-03T13:14:21.915Z,101442.77
2018-10-03T13:16:48.904Z,101432.09
2018-10-03T13:19:16.291Z,101458.05
2018-10-03T13:21:43.548Z,101454.86
2018-10-03T13:24:10.720Z,101461.52
2018-10-03T13:26:37.806Z,101446.65
2018-10-03T13:29:04.869Z,101462.65
2018-10-03T13:31:31.911Z,101452.48
2018-10-03T13:33:59.159Z,101459.59
2018-10-03T13:36:26.222Z,101457.36
2018-10-03T13:38:53.236Z,101463.80
2018-10-03T13:41:20.332Z,101469.76
2018-10-03T13:43:47.307Z,101463.06
2018-10-03T13:46:14.300Z,101474.39
2018-10-03T13:48:41.604Z,101468.52
2018-10-03T13:51:08.630Z,101471.23
2018-10-03T13:53:35.695Z,101464.77
2018-10-03T13:56:02.863Z,101461.60
2018-10-03T13:58:30.236Z,101468.34
2018-10-03T14:00:57.324Z,101467.95
2018-10-03T14:03:24.385Z,101466.28
2018-10-03T14:05:51.411Z,101477.09
2018-10-03T14:08:18.403Z,101478.11
2018-10-03T14:10:45.391Z,101476.94
2018-10-03T14:13:12.380Z,101478.77
2018-10-03T14:15:39.396Z,101461.50
2018-10-03T14:18:06.755Z,101481.95
2018-10-03T14:20:33.755Z,101489.34
2018-10-03T14:23:00.752Z,101479.25
2018-10-03T14:25:30.749Z,101488.20
2018-10-03T14:27:57.750Z,101483.55
2018-10-03T14:30:24.976Z,101491.70
2018-10-03T14:32:52.000Z,101495.09
2018-10-03T14:35:18.980Z,101493.05
2018-10-03T14:37:45.960Z,101503.05
2018-10-03T14:40:13.440Z,101507.30
2018-10-03T14:42:40.556Z,101510.98
2018-10-03T14:45:07.660Z,101506.40
2018-10-03T14:47:35.179Z,101506.91
2018-10-03T14:50:02.461Z,101511.09
2018-10-03T14:52:29.454Z,101508.27
2018-10-03T14:54:56.843Z,101515.83
2018-10-03T14:57:23.851Z,101512.16
2018-10-03T14:59:50.811Z,101518.35
2018-10-03T15:02:17.799Z,101522.09
2018-10-03T15:04:44.777Z,101519.82
2018-10-03T15:07:12.598Z,101520.21
2018-10-03T15:09:39.944Z,101520.14
2018-10-03T15:12:07.128Z,101524.36
2018-10-03T15:14:34.191Z,101519.42
2018-10-03T15:17:01.179Z,101529.98
2018-10-03T15:19:29.463Z,101527.52
2018-10-03T15:21:56.448Z,101528.24
2018-10-03T15:24:23.430Z,101535.14
2018-10-03T15:26:50.810Z,101528.45
2018-10-03T15:29:17.915Z,101532.83
2018-10-03T15:31:45.433Z,101529.98
2018-10-03T15:34:12.527Z,101530.96
2018-10-03T15:36:39.530Z,101541.09
2018-10-03T15:39:07.787Z,101542.11
2018-10-03T15:41:34.817Z,101539.05
2018-10-03T15:44:01.828Z,101549.90
2018-10-03T15:46:28.812Z,101544.81
2018-10-03T15:48:56.209Z,101548.64
2018-10-03T15:51:25.196Z,101561.88
2018-10-03T15:53:52.366Z,101550.42
2018-10-03T15:56:19.570Z,101566.09
2018-10-03T15:58:46.548Z,101553.58
2018-10-03T16:01:13.530Z,101564.64
2018-10-03T16:03:41.169Z,101558.12
2018-10-03T16:06:08.254Z,101566.61
2018-10-03T16:08:35.527Z,101564.31
2018-10-03T16:11:02.504Z,101561.59
2018-10-03T16:13:29.927Z,101577.67
2018-10-03T16:15:56.908Z,101573.61
2018-10-03T16:18:23.960Z,101584.48
2018-10-03T16:20:58.244Z,101586.87
2018-10-03T16:23:25.223Z,101589.08
2018-10-03T16:25:52.276Z,101584.45
2018-10-03T16:28:19.314Z,101589.13
2018-10-03T16:30:46.455Z,101583.27
2018-10-03T16:33:13.511Z,101581.84
2018-10-03T16:35:40.758Z,101588.81
2018-10-03T16:38:07.737Z,101594.56
2018-10-03T16:40:34.705Z,101596.70
2018-10-03T16:43:01.965Z,101590.08
2018-10-03T16:45:29.031Z,101595.48
2018-10-03T16:47:56.012Z,101597.61
2018-10-03T16:50:23.004Z,101590.09
2018-10-03T16:52:51.603Z,101584.61
2018-10-03T16:55:18.598Z,101586.88
2018-10-03T16:57:45.801Z,101582.05
2018-10-03T17:00:13.548Z,101586.55
2018-10-03T17:02:40.761Z,101587.94
2018-10-03T17:05:07.868Z,101587.09
2018-10-03T17:07:34.948Z,101594.42
2018-10-03T17:10:03.289Z,101600.92
2018-10-03T17:12:30.300Z,101602.98
2018-10-03T17:14:57.288Z,101599.59
2018-10-03T17:17:24.287Z,101614.05
2018-10-03T17:19:51.559Z,101619.07
2018-10-03T17:22:18.553Z,101615.94
2018-10-03T17:24:45.860Z,101612.16
2018-10-03T17:27:12.840Z,101610.17
2018-10-03T17:29:39.821Z,101621.05
2018-10-03T17:32:07.004Z,101618.33
2018-10-03T17:34:33.995Z,101607.23
2018-10-03T17:37:01.634Z,101626.84
2018-10-03T17:39:28.886Z,101628.66
2018-10-03T17:41:56.031Z,101626.91
2018-10-03T17:44:23.467Z,101632.12
2018-10-03T17:46:51.734Z,101635.00
2018-10-03T17:49:18.895Z,101651.48
2018-10-03T17:51:46.039Z,101650.23
2018-10-03T17:54:13.306Z,101651.24
2018-10-03T17:56:41.259Z,101660.00
2018-10-03T17:59:09.278Z,101654.35
2018-10-03T18:01:40.850Z,101653.14
2018-10-03T18:04:07.940Z,101651.69
2018-10-03T18:06:35.027Z,101647.79
2018-10-03T18:09:07.688Z,101655.42
2018-10-03T18:11:36.208Z,101661.66
2018-10-03T18:14:06.792Z,101658.37
2018-10-03T18:16:34.060Z,101660.87
2018-10-03T18:19:01.165Z,101667.45
2018-10-03T18:21:28.184Z,101654.26
2018-10-03T18:23:56.256Z,101660.11
2018-10-03T18:26:23.369Z,101654.45
2018-10-03T18:28:50.359Z,101664.41
2018-10-03T18:31:17.355Z,101665.47
2018-10-03T18:33:44.347Z,101669.47
2018-10-03T18:36:11.543Z,101670.09
2018-10-03T18:38:38.498Z,101676.53
2018-10-03T18:41:05.497Z,101676.58
2018-10-03T18:43:32.567Z,101670.44
2018-10-03T18:45:59.563Z,101669.08
2018-10-03T18:48:26.632Z,101675.52
2018-10-03T18:50:53.615Z,101677.14
2018-10-03T18:53:21.266Z,101685.78
2018-10-03T18:55:49.867Z,101692.97
2018-10-03T18:58:17.852Z,101684.15
2018-10-03T19:00:46.212Z,101674.11
2018-10-03T19:03:13.843Z,101683.03
2018-10-03T19:05:40.859Z,101689.91
2018-10-03T19:08:07.909Z,101694.67
2018-10-03T19:10:34.908Z,101693.70
2018-10-03T19:13:01.949Z,101697.71
2018-10-03T19:15:29.019Z,101698.97
2018-10-03T19:17:56.075Z,101700.46
2018-10-03T19:20:23.499Z,101704.37
2018-10-03T19:22:50.503Z,101698.44
2018-10-03T19:25:17.567Z,101691.92
2018-10-03T19:27:44.562Z,101694.47
2018-10-03T19:30:11.633Z,101696.00
2018-10-03T19:32:38.909Z,101693.63
2018-10-03T19:35:06.789Z,101701.27
2018-10-03T19:37:34.248Z,101704.13
2018-10-03T19:40:01.216Z,101701.16
2018-10-03T19:42:28.573Z,101708.80
2018-10-03T19:44:55.645Z,101704.41
2018-10-03T19:47:22.635Z,101704.54
2018-10-03T19:49:49.671Z,101706.39
2018-10-03T19:52:17.307Z,101710.78
2018-10-03T19:54:44.991Z,101712.91
2018-10-03T19:57:12.423Z,101707.50
2018-10-03T19:59:39.444Z,101709.94
2018-10-03T20:02:07.986Z,101712.63
2018-10-03T20:04:35.381Z,101707.27
2018-10-03T20:07:02.459Z,101706.22
2018-10-03T20:09:29.528Z,101704.37
2018-10-03T20:11:56.919Z,101700.88
2018-10-03T20:14:23.900Z,101700.12
2018-10-03T20:16:50.879Z,101708.37
2018-10-03T20:19:18.868Z,101705.91
2018-10-03T20:21:45.844Z,101713.02
2018-10-03T20:24:12.836Z,101720.03
2018-10-03T20:26:39.995Z,101719.05
2018-10-03T20:29:06.922Z,101720.55
2018-10-03T20:31:34.315Z,101728.59
2018-10-03T20:34:01.738Z,101727.45
2018-10-03T20:36:29.206Z,101732.09
2018-10-03T20:38:56.195Z,101730.48
2018-10-03T20:41:23.615Z,101724.09
2018-10-03T20:43:50.795Z,101728.59
2018-10-03T20:46:18.828Z,101732.86
2018-10-03T20:48:45.816Z,101727.62
2018-10-03T20:51:13.176Z,101730.62
2018-10-03T20:53:40.163Z,101730.20
2018-10-03T20:56:07.736Z,101726.34
2018-10-03T20:58:35.534Z,101729.12
2018-10-03T21:01:02.547Z,101733.62
2018-10-03T21:03:29.848Z,101728.11
2018-10-03T21:05:57.136Z,101731.14
2018-10-03T21:08:24.780Z,101737.41
2018-10-03T21:10:51.757Z,101731.77
2018-10-03T21:13:18.776Z,101740.16
2018-10-03T21:15:47.939Z,101749.96
2018-10-03T21:20:55.785Z,101746.69
2018-10-03T21:23:23.386Z,101744.53
2018-10-03T21:25:50.535Z,101746.22
2018-10-03T21:28:17.925Z,101746.58
2018-10-03T21:30:44.937Z,101750.45
2018-10-03T21:33:12.690Z,101758.48
2018-10-03T21:35:39.755Z,101756.59
2018-10-03T21:38:06.755Z,101744.67
2018-10-03T21:40:34.283Z,101754.19
2018-10-03T21:43:01.785Z,101745.41
2018-10-03T21:45:29.387Z,101730.38
2018-10-03T21:47:56.700Z,101738.16
2018-10-03T21:50:23.811Z,101730.09
2018-10-03T21:52:51.272Z,101726.85
2018-10-03T21:55:18.351Z,101728.48
2018-10-03T21:57:45.611Z,101720.85
2018-10-03T22:00:13.036Z,101712.77
2018-10-03T22:02:40.455Z,101718.49
2018-10-03T22:05:08.716Z,101722.26
2018-10-03T22:07:37.492Z,101720.80
2018-10-03T22:10:04.681Z,101721.28
2018-10-03T22:12:32.360Z,101726.06
2018-10-03T22:14:59.595Z,101724.83
2018-10-03T22:17:26.729Z,101731.05
2018-10-03T22:19:56.719Z,101725.05
2018-10-03T22:22:23.981Z,101720.47
2018-10-03T22:24:51.321Z,101722.74
2018-10-03T22:27:19.438Z,101720.72
2018-10-03T22:29:47.541Z,101722.19
2018-10-03T22:32:15.452Z,101720.16
2018-10-03T22:34:43.127Z,101726.80
2018-10-03T22:37:11.308Z,101726.20
2018-10-03T22:39:39.983Z,101730.10
2018-10-03T22:42:07.445Z,101732.61
2018-10-03T22:44:34.589Z,101730.34
2018-10-03T22:47:01.731Z,101729.38
2018-10-03T22:49:29.192Z,101723.50
2018-10-03T22:51:56.167Z,101725.87
2018-10-03T22:54:23.218Z,101723.09
2018-10-03T22:56:50.444Z,101725.59
2018-10-03T22:59:17.455Z,101720.61
2018-10-03T23:01:44.451Z,101729.27
2018-10-03T23:04:11.581Z,101732.69
2018-10-03T23:06:38.560Z,101731.02
2018-10-03T23:09:06.312Z,101733.40
2018-10-03T23:11:33.523Z,101738.42
2018-10-03T23:14:00.999Z,101736.83
2018-10-03T23:16:28.085Z,101740.81
2018-10-03T23:18:55.068Z,101742.21
2018-10-03T23:21:22.063Z,101743.21
2018-10-03T23:23:49.068Z,101739.69
2018-10-03T23:26:16.176Z,101740.59
2018-10-03T23:28:43.339Z,101753.62
2018-10-03T23:31:10.338Z,101755.12
2018-10-03T23:33:37.395Z,101758.75
2018-10-03T23:36:04.416Z,101763.16
2018-10-03T23:38:31.823Z,101760.78
2018-10-03T23:40:58.971Z,101758.38
2018-10-03T23:43:26.032Z,101751.47
2018-10-03T23:45:53.355Z,101759.00
2018-10-03T23:48:20.450Z,101751.49
2018-10-03T23:50:47.440Z,101743.84
2018-10-03T23:53:14.680Z,101749.34
2018-10-03T23:55:41.746Z,101757.50
2018-10-03T23:58:08.736Z,101758.52
